sensor_id;sensor_type;location;lat;lon;timestamp;temperature;humidity
23713;DHT22;12035;49.978;8.298;2024-03-23T00:56:24;15.00;67.20
23713;DHT22;12035;49.978;8.298;2024-03-23T01:01:21;15.00;67.30
23713;DHT22;12035;49.978;8.298;2024-03-23T01:06:18;15.00;67.40
23713;DHT22;12035;49.978;8.298;2024-03-23T01:11:15;14.90;67.30
23713;DHT22;12035;49.978;8.298;2024-03-23T01:16:13;15.00;67.50
23713;DHT22;12035;49.978;8.298;2024-03-23T01:21:13;15.00;67.70
23713;DHT22;12035;49.978;8.298;2024-03-23T01:26:10;15.10;67.60
23713;DHT22;12035;49.978;8.298;2024-03-23T01:31:07;15.10;67.60
23713;DHT22;12035;49.978;8.298;2024-03-23T01:36:06;15.10;67.50
23713;DHT22;12035;49.978;8.298;2024-03-23T01:41:03;15.10;67.50
23713;DHT22;12035;49.978;8.298;2024-03-23T01:46:00;15.10;67.50
23713;DHT22;12035;49.978;8.298;2024-03-23T01:50:58;15.00;67.40
23713;DHT22;12035;49.978;8.298;2024-03-23T01:55:56;15.00;67.60
23713;DHT22;12035;49.978;8.298;2024-03-23T02:00:54;15.00;67.70
23713;DHT22;12035;49.978;8.298;2024-03-23T02:05:51;15.00;67.70
23713;DHT22;12035;49.978;8.298;2024-03-23T02:10:49;14.90;67.80
23713;DHT22;12035;49.978;8.298;2024-03-23T02:15:48;14.90;67.70
23713;DHT22;12035;49.978;8.298;2024-03-23T02:20:45;14.90;67.80
23713;DHT22;12035;49.978;8.298;2024-03-23T02:25:44;14.90;67.80
23713;DHT22;12035;49.978;8.298;2024-03-23T02:30:41;14.80;67.90
23713;DHT22;12035;49.978;8.298;2024-03-23T02:35:38;14.80;68.00
23713;DHT22;12035;49.978;8.298;2024-03-23T02:40:35;14.70;68.10
23713;DHT22;12035;49.978;8.298;2024-03-23T02:45:34;14.70;68.20
23713;DHT22;12035;49.978;8.298;2024-03-23T02:50:31;14.60;68.30
23713;DHT22;12035;49.978;8.298;2024-03-23T02:55:29;14.60;68.30
23713;DHT22;12035;49.978;8.298;2024-03-23T03:00:26;14.60;68.20
23713;DHT22;12035;49.978;8.298;2024-03-23T03:05:24;14.50;68.20
23713;DHT22;12035;49.978;8.298;2024-03-23T03:10:21;14.50;68.30
23713;DHT22;12035;49.978;8.298;2024-03-23T03:15:18;14.40;68.40
23713;DHT22;12035;49.978;8.298;2024-03-23T03:20:15;14.40;68.40
23713;DHT22;12035;49.978;8.298;2024-03-23T03:25:15;14.40;68.40
23713;DHT22;12035;49.978;8.298;2024-03-23T03:30:12;14.40;68.60
23713;DHT22;12035;49.978;8.298;2024-03-23T03:35:10;14.30;68.50
23713;DHT22;12035;49.978;8.298;2024-03-23T03:40:07;14.30;68.70
23713;DHT22;12035;49.978;8.298;2024-03-23T03:45:09;14.20;68.80
23713;DHT22;12035;49.978;8.298;2024-03-23T03:50:11;14.20;69.20
23713;DHT22;12035;49.978;8.298;2024-03-23T03:55:13;14.10;69.20
23713;DHT22;12035;49.978;8.298;2024-03-23T04:00:13;14.10;69.80
23713;DHT22;12035;49.978;8.298;2024-03-23T04:05:11;14.10;70.30
23713;DHT22;12035;49.978;8.298;2024-03-23T04:10:08;14.00;70.50
23713;DHT22;12035;49.978;8.298;2024-03-23T04:15:06;14.00;70.60
23713;DHT22;12035;49.978;8.298;2024-03-23T04:20:06;13.90;70.60
23713;DHT22;12035;49.978;8.298;2024-03-23T04:25:06;13.80;71.10
23713;DHT22;12035;49.978;8.298;2024-03-23T04:30:04;13.80;70.90
23713;DHT22;12035;49.978;8.298;2024-03-23T04:35:08;13.70;70.40
23713;DHT22;12035;49.978;8.298;2024-03-23T04:40:06;13.60;70.10
23713;DHT22;12035;49.978;8.298;2024-03-23T04:45:05;13.50;69.90
23713;DHT22;12035;49.978;8.298;2024-03-23T04:50:03;13.40;69.90
23713;DHT22;12035;49.978;8.298;2024-03-23T04:55:02;13.30;69.70
23713;DHT22;12035;49.978;8.298;2024-03-23T04:59:59;13.30;69.90
23713;DHT22;12035;49.978;8.298;2024-03-23T05:04:57;13.20;70.00
23713;DHT22;12035;49.978;8.298;2024-03-23T05:09:54;13.10;70.20
23713;DHT22;12035;49.978;8.298;2024-03-23T05:14:52;13.10;70.40
23713;DHT22;12035;49.978;8.298;2024-03-23T05:19:49;13.00;70.70
23713;DHT22;12035;49.978;8.298;2024-03-23T05:24:46;12.80;70.40
23713;DHT22;12035;49.978;8.298;2024-03-23T05:29:43;12.80;70.50
23713;DHT22;12035;49.978;8.298;2024-03-23T05:34:41;12.70;70.50
23713;DHT22;12035;49.978;8.298;2024-03-23T05:39:38;12.60;70.30
23713;DHT22;12035;49.978;8.298;2024-03-23T05:44:35;12.50;69.80
23713;DHT22;12035;49.978;8.298;2024-03-23T05:49:33;12.40;69.70
23713;DHT22;12035;49.978;8.298;2024-03-23T05:54:31;12.30;69.60
23713;DHT22;12035;49.978;8.298;2024-03-23T05:59:29;12.30;69.60
23713;DHT22;12035;49.978;8.298;2024-03-23T06:04:26;12.20;69.50
23713;DHT22;12035;49.978;8.298;2024-03-23T06:09:24;12.10;69.10
23713;DHT22;12035;49.978;8.298;2024-03-23T06:14:22;12.00;69.00
23713;DHT22;12035;49.978;8.298;2024-03-23T06:19:19;11.90;69.10
23713;DHT22;12035;49.978;8.298;2024-03-23T06:24:16;11.90;69.30
23713;DHT22;12035;49.978;8.298;2024-03-23T06:29:13;12.00;69.50
23713;DHT22;12035;49.978;8.298;2024-03-23T06:34:12;12.00;69.10
23713;DHT22;12035;49.978;8.298;2024-03-23T06:39:09;12.00;69.00
23713;DHT22;12035;49.978;8.298;2024-03-23T06:44:07;12.00;68.90
23713;DHT22;12035;49.978;8.298;2024-03-23T06:49:04;12.00;68.90
23713;DHT22;12035;49.978;8.298;2024-03-23T06:54:03;12.00;68.20
23713;DHT22;12035;49.978;8.298;2024-03-23T06:59:01;12.00;68.30
23713;DHT22;12035;49.978;8.298;2024-03-23T07:03:58;12.10;68.50
23713;DHT22;12035;49.978;8.298;2024-03-23T07:08:55;12.10;68.20
23713;DHT22;12035;49.978;8.298;2024-03-23T07:13:53;12.10;68.20
23713;DHT22;12035;49.978;8.298;2024-03-23T07:18:51;12.20;70.00
23713;DHT22;12035;49.978;8.298;2024-03-23T07:23:48;12.70;69.80
23713;DHT22;12035;49.978;8.298;2024-03-23T07:28:45;13.20;67.70
23713;DHT22;12035;49.978;8.298;2024-03-23T07:33:45;13.40;65.50
23713;DHT22;12035;49.978;8.298;2024-03-23T07:38:43;13.40;64.70
23713;DHT22;12035;49.978;8.298;2024-03-23T07:43:41;13.40;64.50
23713;DHT22;12035;49.978;8.298;2024-03-23T07:48:39;13.30;64.40
23713;DHT22;12035;49.978;8.298;2024-03-23T07:53:39;13.20;64.20
23713;DHT22;12035;49.978;8.298;2024-03-23T07:58:38;13.10;64.50
23713;DHT22;12035;49.978;8.298;2024-03-23T08:03:35;13.10;64.90
23713;DHT22;12035;49.978;8.298;2024-03-23T08:08:33;13.10;65.80
23713;DHT22;12035;49.978;8.298;2024-03-23T08:13:31;13.40;65.80
23713;DHT22;12035;49.978;8.298;2024-03-23T08:18:29;13.60;65.30
23713;DHT22;12035;49.978;8.298;2024-03-23T08:23:27;14.00;65.90
23713;DHT22;12035;49.978;8.298;2024-03-23T08:28:25;14.60;65.90
23713;DHT22;12035;49.978;8.298;2024-03-23T08:33:24;15.20;65.10
23713;DHT22;12035;49.978;8.298;2024-03-23T08:38:22;15.90;64.30
23713;DHT22;12035;49.978;8.298;2024-03-23T08:43:19;16.60;63.00
23713;DHT22;12035;49.978;8.298;2024-03-23T08:48:16;17.10;59.80
23713;DHT22;12035;49.978;8.298;2024-03-23T08:53:15;17.50;58.80
23713;DHT22;12035;49.978;8.298;2024-03-23T08:58:12;17.70;57.80
23713;DHT22;12035;49.978;8.298;2024-03-23T09:03:13;18.00;57.80
23713;DHT22;12035;49.978;8.298;2024-03-23T09:08:10;18.10;55.40
23713;DHT22;12035;49.978;8.298;2024-03-23T09:13:08;18.10;54.70
23713;DHT22;12035;49.978;8.298;2024-03-23T09:18:06;18.10;54.50
23713;DHT22;12035;49.978;8.298;2024-03-23T09:23:04;18.00;54.00
23713;DHT22;12035;49.978;8.298;2024-03-23T09:28:01;18.00;52.90
23713;DHT22;12035;49.978;8.298;2024-03-23T09:32:59;17.90;51.80
23713;DHT22;12035;49.978;8.298;2024-03-23T09:37:57;17.70;52.20
23713;DHT22;12035;49.978;8.298;2024-03-23T09:42:55;17.50;53.00
23713;DHT22;12035;49.978;8.298;2024-03-23T09:47:52;17.40;52.40
23713;DHT22;12035;49.978;8.298;2024-03-23T09:52:50;17.30;51.60
23713;DHT22;12035;49.978;8.298;2024-03-23T09:57:47;17.20;51.00
23713;DHT22;12035;49.978;8.298;2024-03-23T10:02:45;17.00;51.00
23713;DHT22;12035;49.978;8.298;2024-03-23T10:07:42;16.80;50.40
23713;DHT22;12035;49.978;8.298;2024-03-23T10:12:44;16.60;50.40
23713;DHT22;12035;49.978;8.298;2024-03-23T10:17:42;16.40;50.10
23713;DHT22;12035;49.978;8.298;2024-03-23T10:22:40;16.30;50.70
23713;DHT22;12035;49.978;8.298;2024-03-23T10:27:39;16.20;50.10
23713;DHT22;12035;49.978;8.298;2024-03-23T10:32:38;16.00;50.40
23713;DHT22;12035;49.978;8.298;2024-03-23T10:37:35;15.70;50.70
23713;DHT22;12035;49.978;8.298;2024-03-23T10:42:33;15.30;52.20
23713;DHT22;12035;49.978;8.298;2024-03-23T10:47:31;14.80;52.40
23713;DHT22;12035;49.978;8.298;2024-03-23T10:52:33;14.40;52.50
23713;DHT22;12035;49.978;8.298;2024-03-23T10:57:34;14.00;53.60
23713;DHT22;12035;49.978;8.298;2024-03-23T11:02:35;13.60;54.20
23713;DHT22;12035;49.978;8.298;2024-03-23T11:07:33;13.20;55.50
23713;DHT22;12035;49.978;8.298;2024-03-23T11:12:30;12.90;56.90
23713;DHT22;12035;49.978;8.298;2024-03-23T11:17:30;12.70;57.60
23713;DHT22;12035;49.978;8.298;2024-03-23T11:22:42;12.60;57.60
23713;DHT22;12035;49.978;8.298;2024-03-23T11:27:40;12.40;56.80
23713;DHT22;12035;49.978;8.298;2024-03-23T11:32:37;12.40;57.80
23713;DHT22;12035;49.978;8.298;2024-03-23T11:37:34;12.60;58.60
23713;DHT22;12035;49.978;8.298;2024-03-23T11:42:33;13.00;58.90
23713;DHT22;12035;49.978;8.298;2024-03-23T11:47:33;13.50;58.30
23713;DHT22;12035;49.978;8.298;2024-03-23T11:52:30;14.00;57.50
23713;DHT22;12035;49.978;8.298;2024-03-23T11:57:28;14.40;56.20
23713;DHT22;12035;49.978;8.298;2024-03-23T12:02:27;14.70;55.10
23713;DHT22;12035;49.978;8.298;2024-03-23T12:07:24;14.90;54.00
23713;DHT22;12035;49.978;8.298;2024-03-23T12:12:21;15.00;53.80
23713;DHT22;12035;49.978;8.298;2024-03-23T12:17:21;15.20;53.40
23713;DHT22;12035;49.978;8.298;2024-03-23T12:22:21;15.30;52.40
23713;DHT22;12035;49.978;8.298;2024-03-23T12:27:19;15.40;51.40
23713;DHT22;12035;49.978;8.298;2024-03-23T12:32:16;15.50;51.80
23713;DHT22;12035;49.978;8.298;2024-03-23T12:37:14;15.60;52.40
23713;DHT22;12035;49.978;8.298;2024-03-23T12:42:14;15.70;51.30
23713;DHT22;12035;49.978;8.298;2024-03-23T12:47:11;15.90;50.70
23713;DHT22;12035;49.978;8.298;2024-03-23T12:52:08;15.90;50.50
23713;DHT22;12035;49.978;8.298;2024-03-23T12:57:07;15.90;53.10
23713;DHT22;12035;49.978;8.298;2024-03-23T13:02:06;15.40;54.40
23713;DHT22;12035;49.978;8.298;2024-03-23T13:07:03;14.80;55.30
23713;DHT22;12035;49.978;8.298;2024-03-23T13:12:01;14.30;56.20
23713;DHT22;12035;49.978;8.298;2024-03-23T13:16:58;13.90;57.50
23713;DHT22;12035;49.978;8.298;2024-03-23T13:21:57;13.80;58.60
23713;DHT22;12035;49.978;8.298;2024-03-23T13:26:56;13.90;59.20
23713;DHT22;12035;49.978;8.298;2024-03-23T13:31:53;14.00;59.00
23713;DHT22;12035;49.978;8.298;2024-03-23T13:36:50;14.10;58.90
23713;DHT22;12035;49.978;8.298;2024-03-23T13:41:48;14.20;58.50
23713;DHT22;12035;49.978;8.298;2024-03-23T13:46:45;14.20;58.50
23713;DHT22;12035;49.978;8.298;2024-03-23T13:51:46;14.20;58.10
23713;DHT22;12035;49.978;8.298;2024-03-23T13:56:43;14.30;57.90
23713;DHT22;12035;49.978;8.298;2024-03-23T14:01:42;14.20;57.90
23713;DHT22;12035;49.978;8.298;2024-03-23T14:06:39;14.20;57.80
23713;DHT22;12035;49.978;8.298;2024-03-23T14:11:37;14.30;57.60
23713;DHT22;12035;49.978;8.298;2024-03-23T14:16:36;14.40;56.60
23713;DHT22;12035;49.978;8.298;2024-03-23T14:21:34;14.40;55.90
23713;DHT22;12035;49.978;8.298;2024-03-23T14:26:31;14.40;55.40
23713;DHT22;12035;49.978;8.298;2024-03-23T14:31:29;14.40;55.30
23713;DHT22;12035;49.978;8.298;2024-03-23T14:36:26;14.50;54.70
23713;DHT22;12035;49.978;8.298;2024-03-23T14:41:25;14.60;53.50
23713;DHT22;12035;49.978;8.298;2024-03-23T14:46:22;14.60;53.30
23713;DHT22;12035;49.978;8.298;2024-03-23T14:51:21;14.70;53.50
23713;DHT22;12035;49.978;8.298;2024-03-23T14:56:18;14.70;52.60
23713;DHT22;12035;49.978;8.298;2024-03-23T15:01:16;14.60;53.10
23713;DHT22;12035;49.978;8.298;2024-03-23T15:06:13;14.60;53.10
23713;DHT22;12035;49.978;8.298;2024-03-23T15:11:11;14.60;53.30
23713;DHT22;12035;49.978;8.298;2024-03-23T15:16:08;14.50;53.30
23713;DHT22;12035;49.978;8.298;2024-03-23T15:21:06;14.50;53.20
23713;DHT22;12035;49.978;8.298;2024-03-23T15:26:06;14.40;53.50
23713;DHT22;12035;49.978;8.298;2024-03-23T15:31:03;14.30;53.90
23713;DHT22;12035;49.978;8.298;2024-03-23T15:36:00;14.10;53.80
23713;DHT22;12035;49.978;8.298;2024-03-23T15:40:59;13.90;54.10
23713;DHT22;12035;49.978;8.298;2024-03-23T15:45:58;13.70;54.90
23713;DHT22;12035;49.978;8.298;2024-03-23T15:50:57;13.60;55.10
23713;DHT22;12035;49.978;8.298;2024-03-23T15:55:55;13.60;55.40
23713;DHT22;12035;49.978;8.298;2024-03-23T16:00:56;13.60;55.00
23713;DHT22;12035;49.978;8.298;2024-03-23T16:05:53;13.60;54.50
23713;DHT22;12035;49.978;8.298;2024-03-23T16:10:53;13.60;54.30
23713;DHT22;12035;49.978;8.298;2024-03-23T16:15:56;13.60;54.20
23713;DHT22;12035;49.978;8.298;2024-03-23T16:20:54;13.50;53.90
23713;DHT22;12035;49.978;8.298;2024-03-23T16:25:52;13.30;53.70
23713;DHT22;12035;49.978;8.298;2024-03-23T16:30:56;13.30;53.30
23713;DHT22;12035;49.978;8.298;2024-03-23T16:35:57;13.20;53.60
23713;DHT22;12035;49.978;8.298;2024-03-23T16:40:58;13.10;54.20
23713;DHT22;12035;49.978;8.298;2024-03-23T16:45:58;13.10;54.90
23713;DHT22;12035;49.978;8.298;2024-03-23T16:50:57;13.00;54.40
23713;DHT22;12035;49.978;8.298;2024-03-23T16:55:55;12.90;53.50
23713;DHT22;12035;49.978;8.298;2024-03-23T17:00:53;12.80;53.40
23713;DHT22;12035;49.978;8.298;2024-03-23T17:05:53;12.70;53.50
23713;DHT22;12035;49.978;8.298;2024-03-23T17:10:50;12.60;53.40
23713;DHT22;12035;49.978;8.298;2024-03-23T17:15:50;12.60;53.90
23713;DHT22;12035;49.978;8.298;2024-03-23T17:20:47;12.50;54.20
23713;DHT22;12035;49.978;8.298;2024-03-23T17:25:45;12.50;54.20
23713;DHT22;12035;49.978;8.298;2024-03-23T17:30:42;12.40;54.10
23713;DHT22;12035;49.978;8.298;2024-03-23T17:35:41;12.30;54.40
23713;DHT22;12035;49.978;8.298;2024-03-23T17:40:41;12.10;54.60
23713;DHT22;12035;49.978;8.298;2024-03-23T17:45:39;12.00;55.10
23713;DHT22;12035;49.978;8.298;2024-03-23T17:50:36;11.90;55.40
23713;DHT22;12035;49.978;8.298;2024-03-23T17:55:33;11.80;55.70
23713;DHT22;12035;49.978;8.298;2024-03-23T18:00:31;11.80;55.90
23713;DHT22;12035;49.978;8.298;2024-03-23T18:05:29;11.80;56.30
23713;DHT22;12035;49.978;8.298;2024-03-23T18:10:26;11.80;56.60
23713;DHT22;12035;49.978;8.298;2024-03-23T18:15:27;11.80;56.70
23713;DHT22;12035;49.978;8.298;2024-03-23T18:20:24;11.90;56.80
23713;DHT22;12035;49.978;8.298;2024-03-23T18:25:23;11.90;56.90
23713;DHT22;12035;49.978;8.298;2024-03-23T18:30:20;11.90;57.00
23713;DHT22;12035;49.978;8.298;2024-03-23T18:35:17;11.90;57.20
23713;DHT22;12035;49.978;8.298;2024-03-23T18:40:14;11.80;57.20
23713;DHT22;12035;49.978;8.298;2024-03-23T18:45:14;11.90;57.30
23713;DHT22;12035;49.978;8.298;2024-03-23T18:50:12;11.90;57.40
23713;DHT22;12035;49.978;8.298;2024-03-23T18:55:09;11.90;57.50
23713;DHT22;12035;49.978;8.298;2024-03-23T19:00:07;11.80;57.60
23713;DHT22;12035;49.978;8.298;2024-03-23T19:05:07;11.80;58.10
23713;DHT22;12035;49.978;8.298;2024-03-23T19:10:05;11.60;58.50
23713;DHT22;12035;49.978;8.298;2024-03-23T19:15:03;11.50;59.10
23713;DHT22;12035;49.978;8.298;2024-03-23T19:20:06;11.30;59.60
23713;DHT22;12035;49.978;8.298;2024-03-23T19:25:05;11.20;59.90
23713;DHT22;12035;49.978;8.298;2024-03-23T19:30:05;11.00;60.00
23713;DHT22;12035;49.978;8.298;2024-03-23T19:35:05;10.90;60.50
23713;DHT22;12035;49.978;8.298;2024-03-23T19:40:05;10.90;61.00
23713;DHT22;12035;49.978;8.298;2024-03-23T19:45:03;10.80;61.30
23713;DHT22;12035;49.978;8.298;2024-03-23T19:50:02;10.80;61.50
23713;DHT22;12035;49.978;8.298;2024-03-23T19:55:01;10.80;61.60
23713;DHT22;12035;49.978;8.298;2024-03-23T19:59:58;10.80;62.00
23713;DHT22;12035;49.978;8.298;2024-03-23T20:04:55;10.80;61.80
23713;DHT22;12035;49.978;8.298;2024-03-23T20:09:52;10.80;62.00
23713;DHT22;12035;49.978;8.298;2024-03-23T20:14:51;10.80;62.00
23713;DHT22;12035;49.978;8.298;2024-03-23T20:19:48;10.80;62.10
23713;DHT22;12035;49.978;8.298;2024-03-23T20:24:45;10.80;62.00
23713;DHT22;12035;49.978;8.298;2024-03-23T20:29:42;10.80;62.00
23713;DHT22;12035;49.978;8.298;2024-03-23T20:34:40;10.80;62.10
23713;DHT22;12035;49.978;8.298;2024-03-23T20:39:39;10.70;62.00
23713;DHT22;12035;49.978;8.298;2024-03-23T20:44:36;10.60;62.00
23713;DHT22;12035;49.978;8.298;2024-03-23T20:49:33;10.50;62.00
23713;DHT22;12035;49.978;8.298;2024-03-23T20:54:32;10.40;62.40
23713;DHT22;12035;49.978;8.298;2024-03-23T20:59:30;10.30;62.80
23713;DHT22;12035;49.978;8.298;2024-03-23T21:04:27;10.20;62.90
23713;DHT22;12035;49.978;8.298;2024-03-23T21:09:24;10.20;62.90
23713;DHT22;12035;49.978;8.298;2024-03-23T21:14:23;10.10;62.90
23713;DHT22;12035;49.978;8.298;2024-03-23T21:19:20;10.10;63.00
23713;DHT22;12035;49.978;8.298;2024-03-23T21:24:17;10.10;63.00
23713;DHT22;12035;49.978;8.298;2024-03-23T21:29:14;10.00;63.20
23713;DHT22;12035;49.978;8.298;2024-03-23T21:34:12;10.00;64.30
23713;DHT22;12035;49.978;8.298;2024-03-23T21:39:09;9.90;63.80
23713;DHT22;12035;49.978;8.298;2024-03-23T21:44:09;9.90;63.80
23713;DHT22;12035;49.978;8.298;2024-03-23T21:49:06;9.90;63.90
23713;DHT22;12035;49.978;8.298;2024-03-23T21:54:05;9.90;64.30
23713;DHT22;12035;49.978;8.298;2024-03-23T21:59:02;10.00;64.30
23713;DHT22;12035;49.978;8.298;2024-03-23T22:03:59;10.00;63.90
23713;DHT22;12035;49.978;8.298;2024-03-23T22:08:56;10.00;63.90
23713;DHT22;12035;49.978;8.298;2024-03-23T22:13:54;9.90;63.90
23713;DHT22;12035;49.978;8.298;2024-03-23T22:18:52;9.90;64.10
23713;DHT22;12035;49.978;8.298;2024-03-23T22:23:49;9.90;64.20
23713;DHT22;12035;49.978;8.298;2024-03-23T22:28:46;9.90;64.30
23713;DHT22;12035;49.978;8.298;2024-03-23T22:33:45;9.90;64.70
23713;DHT22;12035;49.978;8.298;2024-03-23T22:38:42;9.90;64.70
23713;DHT22;12035;49.978;8.298;2024-03-23T22:43:39;10.00;64.90
23713;DHT22;12035;49.978;8.298;2024-03-23T22:48:36;10.00;64.80
23713;DHT22;12035;49.978;8.298;2024-03-23T22:53:34;10.00;64.70
23713;DHT22;12035;49.978;8.298;2024-03-23T22:58:31;10.00;64.80
23713;DHT22;12035;49.978;8.298;2024-03-23T23:03:29;9.90;64.80
23713;DHT22;12035;49.978;8.298;2024-03-23T23:08:26;9.80;64.90
23713;DHT22;12035;49.978;8.298;2024-03-23T23:13:25;9.80;65.30
23713;DHT22;12035;49.978;8.298;2024-03-23T23:18:22;9.70;65.60
23713;DHT22;12035;49.978;8.298;2024-03-23T23:23:22;9.60;66.00
23713;DHT22;12035;49.978;8.298;2024-03-23T23:28:20;9.60;66.50
23713;DHT22;12035;49.978;8.298;2024-03-23T23:33:18;9.50;66.60
23713;DHT22;12035;49.978;8.298;2024-03-23T23:38:15;9.50;67.10
23713;DHT22;12035;49.978;8.298;2024-03-23T23:43:12;9.60;67.20
23713;DHT22;12035;49.978;8.298;2024-03-23T23:48:09;9.60;67.40
23713;DHT22;12035;49.978;8.298;2024-03-23T23:53:08;9.60;68.00
23713;DHT22;12035;49.978;8.298;2024-03-23T23:58:05;9.60;67.90
